Time;durP1;ratioP1;P1;durP2;ratioP2;P2;SDS_P1;SDS_P2;PMS_P1;PMS_P2;Temp;Humidity;BMP_temperature;BMP_pressure;BME280_temperature;BME280_humidity;BME280_pressure;Samples;Min_cycle;Max_cycle;Signal;HPM_P1;HPM_P2
2023/01/16 00:00:47;;;;;;;5.20;0.70;;;5.60;99.90;;;;;;5080856;28;20130;-79
2023/01/16 00:03:13;;;;;;;2.75;0.55;;;5.60;99.90;;;;;;5082332;28;20035;-78
2023/01/16 00:05:38;;;;;;;0.77;0.45;;;5.60;99.90;;;;;;5050579;28;20558;-79
2023/01/16 00:08:04;;;;;;;0.60;0.40;;;5.60;99.90;;;;;;5053810;28;20029;-79
2023/01/16 00:10:30;;;;;;;1.05;0.60;;;5.50;99.90;;;;;;5074530;28;20048;-79
2023/01/16 00:12:55;;;;;;;1.02;0.73;;;5.60;99.90;;;;;;5056612;28;20105;-78
2023/01/16 00:15:21;;;;;;;0.60;0.40;;;5.50;99.90;;;;;;5074623;28;20063;-79
2023/01/16 00:17:48;;;;;;;0.85;0.47;;;5.50;99.90;;;;;;5070432;28;20666;-79
2023/01/16 00:20:13;;;;;;;1.48;0.73;;;5.50;99.90;;;;;;5075950;28;20044;-79
2023/01/16 00:22:39;;;;;;;2.78;0.50;;;5.50;99.90;;;;;;5070060;28;20054;-79
2023/01/16 00:25:05;;;;;;;0.93;0.45;;;5.40;99.90;;;;;;5072802;28;20036;-79
2023/01/16 00:27:31;;;;;;;0.60;0.40;;;5.40;99.90;;;;;;5076446;28;20491;-79
2023/01/16 00:29:56;;;;;;;1.85;0.50;;;5.40;99.90;;;;;;5073609;28;20123;-79
2023/01/16 00:32:22;;;;;;;2.40;0.60;;;5.40;99.90;;;;;;5073195;28;20039;-79
2023/01/16 00:34:47;;;;;;;2.70;0.82;;;5.30;99.90;;;;;;5070163;28;20043;-79
2023/01/16 00:37:13;;;;;;;1.58;0.60;;;5.30;99.90;;;;;;5068371;28;20478;-78
2023/01/16 00:39:39;;;;;;;3.53;0.80;;;5.30;99.90;;;;;;5067600;28;20079;-78
2023/01/16 00:42:06;;;;;;;1.40;0.68;;;5.30;99.90;;;;;;5092818;27;20514;-78
2023/01/16 00:44:31;;;;;;;4.53;0.68;;;5.20;99.90;;;;;;5072283;28;20032;-79
2023/01/16 00:46:57;;;;;;;2.45;0.85;;;5.20;99.90;;;;;;5060895;28;20032;-78
2023/01/16 00:49:22;;;;;;;0.52;0.50;;;5.20;99.90;;;;;;5072406;28;20029;-79
2023/01/16 00:51:48;;;;;;;1.15;0.50;;;5.20;99.90;;;;;;5058245;28;20039;-79
2023/01/16 00:54:14;;;;;;;1.58;0.57;;;5.20;99.90;;;;;;5071367;28;20061;-79
2023/01/16 00:56:39;;;;;;;0.75;0.50;;;5.20;99.90;;;;;;5076970;28;20094;-79
2023/01/16 00:59:05;;;;;;;1.23;0.50;;;5.20;99.90;;;;;;5057885;28;20044;-79
2023/01/16 01:01:31;;;;;;;1.70;0.60;;;5.20;99.90;;;;;;5076671;28;20061;-78
2023/01/16 01:03:59;;;;;;;1.10;0.45;;;5.30;99.90;;;;;;5079987;28;20044;-79
2023/01/16 01:06:25;;;;;;;12.25;0.68;;;5.20;99.90;;;;;;5071735;28;20551;-79
2023/01/16 01:08:50;;;;;;;2.83;0.75;;;5.20;99.90;;;;;;5077375;28;20378;-79
2023/01/16 01:11:16;;;;;;;1.27;0.65;;;5.20;99.90;;;;;;5075301;28;20039;-79
2023/01/16 01:13:43;;;;;;;0.63;0.40;;;5.20;99.90;;;;;;5057884;28;20057;-79
2023/01/16 01:16:09;;;;;;;3.30;0.55;;;5.20;99.90;;;;;;5066095;28;20560;-79
2023/01/16 01:18:35;;;;;;;3.65;0.63;;;5.20;99.90;;;;;;5073527;28;20580;-79
2023/01/16 01:21:01;;;;;;;0.52;0.32;;;5.10;99.90;;;;;;5091290;27;20047;-79
2023/01/16 01:23:27;;;;;;;0.90;0.47;;;5.10;99.90;;;;;;5072571;28;20032;-79
2023/01/16 01:25:52;;;;;;;2.13;0.55;;;5.10;99.90;;;;;;5067031;28;20668;-79
2023/01/16 01:28:19;;;;;;;1.38;0.50;;;5.10;99.90;;;;;;5061420;28;20028;-79
2023/01/16 01:30:44;;;;;;;0.90;0.55;;;5.10;99.90;;;;;;5055878;28;20037;-79
2023/01/16 01:33:11;;;;;;;1.63;0.65;;;5.20;99.90;;;;;;5056922;28;20039;-79
2023/01/16 01:35:37;;;;;;;1.23;0.63;;;5.20;99.90;;;;;;5058353;28;20043;-79
2023/01/16 01:38:03;;;;;;;3.50;0.77;;;5.20;99.90;;;;;;5070556;28;20059;-79
2023/01/16 01:40:28;;;;;;;0.90;0.43;;;5.20;99.90;;;;;;5066471;28;20370;-79
2023/01/16 01:42:54;;;;;;;1.55;0.40;;;5.20;99.90;;;;;;5068276;28;20032;-79
2023/01/16 01:45:23;;;;;;;1.90;0.47;;;5.20;99.90;;;;;;5066088;28;20041;-79
2023/01/16 01:47:57;;;;;;;1.20;0.60;;;5.20;99.90;;;;;;5073827;28;20040;-79
2023/01/16 01:50:42;;;;;;;1.98;0.63;;;5.30;99.90;;;;;;5060789;28;20043;-79
2023/01/16 01:53:30;;;;;;;5.05;0.85;;;5.30;99.90;;;;;;5070975;28;20082;-79
2023/01/16 01:56:00;;;;;;;0.45;0.28;;;5.30;99.90;;;;;;5059598;28;20450;-79
2023/01/16 01:58:27;;;;;;;0.90;0.52;;;5.30;99.90;;;;;;5078072;28;20489;-79
2023/01/16 02:00:58;;;;;;;3.30;0.70;;;5.40;99.90;;;;;;5078042;28;20051;-79
2023/01/16 02:03:36;;;;;;;1.10;0.40;;;5.40;99.90;;;;;;5078986;28;20485;-79
2023/01/16 02:06:09;;;;;;;4.57;0.77;;;5.40;99.90;;;;;;5070931;28;20048;-79
2023/01/16 02:08:36;;;;;;;3.33;0.60;;;5.40;99.90;;;;;;5069132;28;20397;-78
2023/01/16 02:11:06;;;;;;;2.42;0.38;;;5.40;99.90;;;;;;5076392;28;20139;-79
2023/01/16 02:13:32;;;;;;;1.27;1.00;;;5.40;99.90;;;;;;5075229;28;20085;-79
2023/01/16 02:22:04;;;;;;;0.60;0.50;;;5.40;99.90;;;;;;5078719;28;20390;-79
2023/01/16 02:24:42;;;;;;;1.00;0.50;;;5.30;99.90;;;;;;5062813;28;20561;-79
2023/01/16 02:27:42;;;;;;;1.80;0.30;;;5.30;99.90;;;;;;5072005;28;20033;-79
2023/01/16 02:30:36;;;;;;;0.70;0.45;;;5.40;99.90;;;;;;5074519;28;20040;-79
2023/01/16 02:33:42;;;;;;;0.52;0.40;;;5.40;99.90;;;;;;5075921;28;20036;-79
2023/01/16 02:36:24;;;;;;;0.85;0.25;;;5.30;99.90;;;;;;5081183;28;20051;-79
2023/01/16 02:39:12;;;;;;;1.65;0.40;;;5.40;99.90;;;;;;5074062;28;20067;-79
2023/01/16 02:41:45;;;;;;;1.77;0.70;;;5.40;99.90;;;;;;5074373;28;20047;-79
2023/01/16 02:44:45;;;;;;;2.05;0.50;;;5.50;99.90;;;;;;5082319;28;20071;-79
2023/01/16 02:47:11;;;;;;;1.30;0.35;;;5.50;99.90;;;;;;5073804;28;20060;-79
2023/01/16 02:49:57;;;;;;;0.95;0.40;;;5.50;99.90;;;;;;5077944;28;20463;-79
2023/01/16 02:52:33;;;;;;;0.70;0.40;;;5.50;99.90;;;;;;5071970;28;20039;-79
2023/01/16 02:55:08;;;;;;;2.75;1.02;;;5.50;99.90;;;;;;5057650;28;20449;-79
2023/01/16 02:57:41;;;;;;;0.88;0.65;;;5.50;99.90;;;;;;5077193;28;20035;-79
2023/01/16 03:00:08;;;;;;;2.67;0.60;;;5.60;99.90;;;;;;5082415;28;20650;-79
2023/01/16 03:02:34;;;;;;;0.35;0.25;;;5.60;99.90;;;;;;5076067;28;20044;-79
2023/01/16 03:05:00;;;;;;;1.83;0.47;;;5.50;99.90;;;;;;5056950;28;20043;-79
2023/01/16 03:08:07;;;;;;;1.38;0.52;;;5.50;99.90;;;;;;5076716;28;20353;-79
2023/01/16 03:10:44;;;;;;;;;;;5.50;99.90;;;;;;5024815;28;20180;-79
2023/01/16 03:13:32;;;;;;;1.95;0.55;;;5.50;99.90;;;;;;5082202;28;19916;-79
2023/01/16 03:16:18;;;;;;;1.25;0.45;;;5.50;99.90;;;;;;5077160;28;20047;-79
2023/01/16 03:18:44;;;;;;;;;;;5.50;99.90;;;;;;5082371;28;20047;-79
2023/01/16 03:21:38;;;;;;;0.77;0.47;;;5.50;99.90;;;;;;5062262;28;20010;-79
2023/01/16 03:24:30;;;;;;;1.17;0.40;;;5.50;99.90;;;;;;5066705;28;20388;-79
2023/01/16 03:27:08;;;;;;;1.27;0.55;;;5.40;99.90;;;;;;5075105;28;20554;-79
2023/01/16 03:30:14;;;;;;;0.73;0.40;;;5.40;99.90;;;;;;5077849;28;20032;-79
2023/01/16 03:32:45;;;;;;;1.27;0.57;;;5.40;99.90;;;;;;5055710;28;20052;-79
2023/01/16 03:35:27;;;;;;;1.35;0.70;;;5.40;99.90;;;;;;5073479;28;20123;-79
2023/01/16 03:37:57;;;;;;;1.67;0.70;;;5.40;99.90;;;;;;5064859;28;20044;-79
2023/01/16 03:40:27;;;;;;;1.10;0.70;;;5.40;99.90;;;;;;5082920;28;20046;-79
2023/01/16 03:43:11;;;;;;;1.10;0.60;;;5.40;99.90;;;;;;5078184;28;20047;-79
2023/01/16 03:45:44;;;;;;;1.38;0.52;;;5.40;99.90;;;;;;5077109;28;20036;-79
2023/01/16 03:48:12;;;;;;;2.60;0.55;;;5.40;99.90;;;;;;5076181;28;20111;-79
2023/01/16 03:50:42;;;;;;;2.20;0.60;;;5.40;99.90;;;;;;5063744;28;20128;-79
2023/01/16 03:53:13;;;;;;;1.98;0.63;;;5.40;99.90;;;;;;5082031;28;20040;-79
2023/01/16 03:55:49;;;;;;;2.25;0.70;;;5.40;99.90;;;;;;5075736;28;20056;-79
2023/01/16 03:58:31;;;;;;;1.95;1.02;;;5.40;99.90;;;;;;5081078;28;20044;-79
2023/01/16 04:01:23;;;;;;;1.70;1.00;;;5.40;99.90;;;;;;5059657;28;20051;-79
2023/01/16 04:03:54;;;;;;;1.95;0.90;;;5.40;99.90;;;;;;5044850;28;20081;-79
2023/01/16 04:06:26;;;;;;;3.13;1.10;;;5.40;99.90;;;;;;5081522;28;20040;-79
2023/01/16 04:08:54;;;;;;;2.10;1.00;;;5.50;99.90;;;;;;5062394;28;20490;-79
2023/01/16 04:11:22;;;;;;;1.45;0.80;;;5.50;99.90;;;;;;5059368;28;20402;-79
2023/01/16 04:13:51;;;;;;;1.40;0.70;;;5.40;99.90;;;;;;5076936;28;20036;-79
2023/01/16 04:16:18;;;;;;;2.08;1.08;;;5.40;99.90;;;;;;5082948;28;20033;-79
2023/01/16 04:18:45;;;;;;;2.25;1.30;;;5.40;99.90;;;;;;5061957;28;20056;-79
2023/01/16 04:21:11;;;;;;;3.53;1.20;;;5.40;99.90;;;;;;5062882;28;20751;-79
2023/01/16 04:23:37;;;;;;;2.35;0.90;;;5.40;99.90;;;;;;5064370;28;20047;-79
2023/01/16 04:26:03;;;;;;;1.13;0.60;;;5.40;99.90;;;;;;5057944;28;20437;-79
2023/01/16 04:28:28;;;;;;;4.03;1.20;;;5.40;99.90;;;;;;5074083;28;20040;-79
2023/01/16 04:30:54;;;;;;;1.75;0.80;;;5.40;99.90;;;;;;5059154;28;20085;-79
2023/01/16 04:33:20;;;;;;;3.42;1.55;;;5.40;99.90;;;;;;5072275;28;20110;-79
2023/01/16 04:35:45;;;;;;;2.60;1.58;;;5.40;99.90;;;;;;5079550;28;20100;-79
2023/01/16 04:38:12;;;;;;;2.65;1.30;;;5.40;99.90;;;;;;5077612;28;20060;-79
2023/01/16 04:40:38;;;;;;;3.50;1.20;;;5.30;99.90;;;;;;5077316;28;20039;-79
2023/01/16 04:43:03;;;;;;;2.15;1.25;;;5.40;99.90;;;;;;5074454;28;20059;-79
2023/01/16 04:45:29;;;;;;;3.72;1.10;;;5.40;99.90;;;;;;5080518;28;20482;-79
2023/01/16 04:47:54;;;;;;;2.70;1.17;;;5.40;99.90;;;;;;5075927;28;20110;-79
2023/01/16 04:50:20;;;;;;;3.17;1.98;;;5.40;99.90;;;;;;5075594;28;20109;-79
2023/01/16 04:52:46;;;;;;;4.05;2.03;;;5.50;99.90;;;;;;5076021;28;20036;-79
2023/01/16 04:55:12;;;;;;;3.83;1.67;;;5.50;99.90;;;;;;5072442;28;20050;-79
2023/01/16 04:57:39;;;;;;;3.78;1.65;;;5.50;99.90;;;;;;5080404;28;20044;-79
2023/01/16 05:00:06;;;;;;;4.50;1.67;;;5.40;99.90;;;;;;5077893;28;20055;-79
2023/01/16 05:02:32;;;;;;;4.28;2.03;;;5.40;99.90;;;;;;5097865;28;21693;-79
2023/01/16 05:04:57;;;;;;;3.47;1.95;;;5.50;99.90;;;;;;5090992;27;20048;-79
2023/01/16 05:07:26;;;;;;;4.28;2.20;;;5.50;99.90;;;;;;5062173;28;20039;-79
2023/01/16 05:09:52;;;;;;;4.55;1.60;;;5.50;99.90;;;;;;5070503;28;20131;-79
2023/01/16 05:12:18;;;;;;;5.10;2.15;;;5.50;99.90;;;;;;5096500;28;20131;-79
2023/01/16 05:14:43;;;;;;;4.13;1.80;;;5.50;99.90;;;;;;5074209;28;20036;-79
2023/01/16 05:17:09;;;;;;;6.68;2.63;;;5.60;99.90;;;;;;5076468;28;20539;-79
2023/01/16 05:19:35;;;;;;;4.60;2.13;;;5.50;99.90;;;;;;5056425;28;20044;-79
2023/01/16 05:22:00;;;;;;;5.97;3.00;;;5.50;99.90;;;;;;5080578;28;20071;-79
2023/01/16 05:24:26;;;;;;;4.82;2.55;;;5.60;99.90;;;;;;5091862;28;20048;-79
2023/01/16 05:26:51;;;;;;;5.32;2.60;;;5.60;99.90;;;;;;5075581;28;20032;-79
2023/01/16 05:29:17;;;;;;;4.35;1.98;;;5.50;99.90;;;;;;5076791;28;20057;-79
2023/01/16 05:31:43;;;;;;;4.80;2.05;;;5.50;99.90;;;;;;5076064;28;20036;-79
2023/01/16 05:34:09;;;;;;;5.03;2.58;;;5.50;99.90;;;;;;5078703;28;20044;-79
2023/01/16 05:36:35;;;;;;;3.88;2.08;;;5.50;99.90;;;;;;5059701;28;20104;-79
2023/01/16 05:39:01;;;;;;;3.97;1.88;;;5.40;99.90;;;;;;5080041;28;20505;-79
2023/01/16 05:41:30;;;;;;;5.10;2.35;;;5.40;99.90;;;;;;5080781;28;20155;-79
2023/01/16 05:43:55;;;;;;;4.40;2.13;;;5.40;99.90;;;;;;5054646;28;20147;-79
2023/01/16 05:46:21;;;;;;;4.45;2.08;;;5.40;99.90;;;;;;5068798;28;20040;-79
2023/01/16 05:48:47;;;;;;;3.20;1.33;;;5.30;99.90;;;;;;5075195;28;20071;-79
2023/01/16 05:51:12;;;;;;;4.03;2.22;;;5.30;99.90;;;;;;5072786;28;20082;-79
2023/01/16 05:53:38;;;;;;;5.20;1.98;;;5.30;99.90;;;;;;5056818;28;20040;-79
2023/01/16 05:56:08;;;;;;;2.22;1.38;;;5.20;99.90;;;;;;5058817;28;20049;-79
2023/01/16 05:58:34;;;;;;;3.95;1.65;;;5.20;99.90;;;;;;5062632;28;20024;-79
2023/01/16 06:01:00;;;;;;;3.40;1.65;;;5.20;99.90;;;;;;5077062;28;20039;-79
2023/01/16 06:03:26;;;;;;;4.55;2.08;;;5.20;99.90;;;;;;5080446;28;20390;-79
2023/01/16 06:05:51;;;;;;;2.67;1.60;;;5.20;99.90;;;;;;5073535;28;20093;-79
2023/01/16 06:08:17;;;;;;;6.43;1.98;;;5.30;99.90;;;;;;5062815;28;20061;-79
2023/01/16 06:10:44;;;;;;;4.63;1.70;;;5.30;99.90;;;;;;5062990;28;20177;-79
2023/01/16 06:13:10;;;;;;;2.13;1.30;;;5.30;99.90;;;;;;5078160;28;20040;-79
2023/01/16 06:15:36;;;;;;;3.22;1.70;;;5.30;99.90;;;;;;5059593;28;20036;-79
2023/01/16 06:18:01;;;;;;;3.50;1.80;;;5.30;99.90;;;;;;5091138;28;20048;-79
2023/01/16 06:20:27;;;;;;;3.20;1.48;;;5.30;99.90;;;;;;5069341;28;20056;-79
2023/01/16 06:22:53;;;;;;;2.35;1.20;;;5.30;99.90;;;;;;5087596;28;20055;-79
2023/01/16 06:25:19;;;;;;;3.47;1.48;;;5.30;99.90;;;;;;5077247;28;20040;-79
2023/01/16 06:27:51;;;;;;;2.97;1.52;;;5.20;99.90;;;;;;5063730;28;20610;-79
2023/01/16 06:30:17;;;;;;;3.50;1.60;;;5.20;99.90;;;;;;5079293;28;20084;-80
2023/01/16 06:32:43;;;;;;;6.45;1.40;;;5.20;99.90;;;;;;5089868;28;20071;-79
2023/01/16 06:35:09;;;;;;;2.05;1.15;;;5.20;99.90;;;;;;5075258;28;20032;-79
2023/01/16 06:37:34;;;;;;;3.38;1.25;;;5.20;99.90;;;;;;5076242;28;20123;-79
2023/01/16 06:40:01;;;;;;;2.70;1.50;;;5.20;99.90;;;;;;5070165;28;20028;-79
2023/01/16 06:42:27;;;;;;;2.40;1.10;;;5.10;99.90;;;;;;5078398;28;20112;-79
2023/01/16 06:44:52;;;;;;;3.67;1.42;;;5.10;99.90;;;;;;5056825;28;20139;-79
2023/01/16 06:47:18;;;;;;;2.88;1.42;;;5.10;99.90;;;;;;5064023;28;20078;-79
2023/01/16 06:49:43;;;;;;;5.30;1.08;;;5.10;99.90;;;;;;5077260;28;20032;-79
2023/01/16 06:52:09;;;;;;;2.42;1.13;;;5.20;99.90;;;;;;5076621;28;20036;-79
2023/01/16 06:54:35;;;;;;;2.53;1.15;;;5.20;99.90;;;;;;5079224;28;20482;-79
2023/01/16 06:57:00;;;;;;;3.05;1.15;;;5.20;99.90;;;;;;5061239;28;20060;-79
2023/01/16 06:59:26;;;;;;;2.40;1.50;;;5.20;99.90;;;;;;5059554;28;20422;-79
2023/01/16 07:01:52;;;;;;;1.35;0.85;;;5.10;99.90;;;;;;5072882;28;20072;-79
2023/01/16 07:04:17;;;;;;;2.88;1.55;;;5.10;99.90;;;;;;5078480;28;20068;-79
2023/01/16 07:06:46;;;;;;;4.45;1.45;;;5.10;99.90;;;;;;5079211;28;20126;-79
2023/01/16 07:09:11;;;;;;;1.85;1.00;;;5.10;99.90;;;;;;5076530;28;20524;-79
2023/01/16 07:11:37;;;;;;;3.08;1.30;;;5.10;99.90;;;;;;5092286;28;20041;-79
2023/01/16 07:22:34;;;;;;;2.25;1.30;;;5.10;99.90;;;;;;5083571;28;20509;-79
2023/01/16 07:25:02;;;;;;;2.00;1.07;;;5.00;99.90;;;;;;5078893;28;20408;-79
2023/01/16 07:27:28;;;;;;;3.72;1.50;;;5.00;99.90;;;;;;5076361;28;20150;-79
2023/01/16 07:29:53;;;;;;;1.90;0.90;;;5.00;99.90;;;;;;5081938;28;20032;-79
2023/01/16 07:32:20;;;;;;;3.20;1.23;;;5.00;99.90;;;;;;5076877;28;20066;-79
2023/01/16 07:34:45;;;;;;;6.30;1.30;;;5.00;99.90;;;;;;5083724;28;20047;-79
2023/01/16 07:37:11;;;;;;;1.15;0.60;;;5.00;99.90;;;;;;5076454;28;20036;-79
2023/01/16 07:39:37;;;;;;;5.20;1.23;;;5.00;99.90;;;;;;5078613;28;20128;-79
2023/01/16 07:42:07;;;;;;;1.58;0.95;;;5.00;99.90;;;;;;5075875;28;20060;-79
2023/01/16 07:44:33;;;;;;;1.00;0.65;;;5.00;99.90;;;;;;5079182;28;20571;-79
2023/01/16 07:46:59;;;;;;;2.28;1.00;;;5.00;99.90;;;;;;5076642;28;20036;-79
2023/01/16 07:49:24;;;;;;;3.95;1.15;;;5.00;99.90;;;;;;5079205;28;20284;-79
2023/01/16 07:51:50;;;;;;;1.40;0.75;;;5.00;99.90;;;;;;5075780;28;20024;-79
2023/01/16 07:54:16;;;;;;;1.80;0.85;;;5.00;99.90;;;;;;5054886;28;22095;-78
2023/01/16 07:56:41;;;;;;;3.03;1.10;;;5.00;99.90;;;;;;5073451;28;20122;-78
2023/01/16 07:59:07;;;;;;;2.78;1.33;;;5.00;99.90;;;;;;5072866;28;20380;-79
2023/01/16 08:01:33;;;;;;;2.33;1.10;;;5.00;99.90;;;;;;5070367;28;20037;-78
2023/01/16 08:03:59;;;;;;;2.72;1.13;;;5.00;99.90;;;;;;5070372;28;20405;-79
2023/01/16 08:06:24;;;;;;;2.50;1.40;;;5.00;99.90;;;;;;5052587;28;20047;-79
2023/01/16 08:08:50;;;;;;;1.30;0.80;;;5.00;99.90;;;;;;5059340;28;20028;-79
2023/01/16 08:14:01;;;;;;;3.38;1.15;;;5.00;99.90;;;;;;5074727;28;20054;-79
2023/01/16 08:16:27;;;;;;;2.05;1.20;;;5.00;99.90;;;;;;5068465;28;20047;-79
2023/01/16 08:18:52;;;;;;;2.40;0.98;;;5.00;99.90;;;;;;5095607;27;20040;-79
2023/01/16 08:21:18;;;;;;;3.08;1.17;;;5.00;99.90;;;;;;5075399;28;20450;-79
2023/01/16 08:23:44;;;;;;;2.67;1.30;;;5.00;99.90;;;;;;5051636;28;20086;-79
2023/01/16 08:26:11;;;;;;;3.70;1.33;;;4.90;99.90;;;;;;5084397;27;20111;-78
2023/01/16 08:28:37;;;;;;;1.90;1.10;;;5.00;99.90;;;;;;5084834;27;20086;-78
2023/01/16 08:31:11;;;;;;;2.08;1.10;;;4.90;99.90;;;;;;5063365;28;20739;-78
2023/01/16 08:33:38;;;;;;;2.42;1.13;;;4.90;99.90;;;;;;5053594;28;20093;-78
2023/01/16 08:36:06;;;;;;;2.67;1.10;;;5.00;99.90;;;;;;5059507;28;20043;-78
2023/01/16 08:38:32;;;;;;;1.95;1.05;;;5.00;99.90;;;;;;5076963;28;20127;-77
2023/01/16 08:40:58;;;;;;;2.40;1.10;;;5.00;99.90;;;;;;5069585;28;20155;-78
2023/01/16 08:51:54;;;;;;;0.80;0.50;;;5.00;99.90;;;;;;5067817;28;20044;-78
2023/01/16 08:54:20;;;;;;;3.38;1.00;;;5.00;99.90;;;;;;5068440;28;20058;-83
2023/01/16 08:56:45;;;;;;;1.85;0.93;;;5.10;99.90;;;;;;5072422;28;20044;-81
2023/01/16 08:59:11;;;;;;;1.17;0.65;;;5.10;99.90;;;;;;5057687;28;20087;-77
2023/01/16 09:01:38;;;;;;;2.72;1.30;;;5.10;99.90;;;;;;5069555;28;20040;-77
2023/01/16 09:04:05;;;;;;;1.20;0.63;;;5.10;99.90;;;;;;5067404;28;20044;-78
2023/01/16 09:06:31;;;;;;;1.42;0.68;;;5.10;99.90;;;;;;5074871;28;20138;-78
2023/01/16 09:08:56;;;;;;;2.58;0.70;;;5.10;99.90;;;;;;5058234;28;20426;-77
2023/01/16 09:14:06;;;;;;;1.48;0.70;;;5.10;99.90;;;;;;5077565;28;20146;-77
2023/01/16 09:16:31;;;;;;;1.15;0.60;;;5.10;99.90;;;;;;5095045;28;20162;-77
2023/01/16 09:18:57;;;;;;;1.30;0.50;;;5.10;99.90;;;;;;5078602;28;20519;-78
2023/01/16 09:21:24;;;;;;;1.00;0.70;;;5.10;99.90;;;;;;5069336;28;20063;-78
2023/01/16 09:23:50;;;;;;;2.25;0.70;;;5.10;99.90;;;;;;5067801;28;20402;-78
2023/01/16 09:26:17;;;;;;;0.90;0.40;;;5.10;99.90;;;;;;5072452;28;20044;-78
2023/01/16 09:28:42;;;;;;;1.15;0.68;;;5.10;99.90;;;;;;5072033;28;20150;-78
2023/01/16 09:31:08;;;;;;;1.02;0.63;;;5.10;99.90;;;;;;5062663;28;20055;-78
2023/01/16 09:33:34;;;;;;;1.58;0.80;;;5.20;99.90;;;;;;5063154;28;20097;-78
2023/01/16 09:36:00;;;;;;;1.42;0.70;;;5.10;99.90;;;;;;5064850;28;20024;-78
2023/01/16 09:38:27;;;;;;;1.52;0.30;;;5.20;99.90;;;;;;5059928;28;20649;-79
2023/01/16 09:40:56;;;;;;;1.30;0.40;;;5.20;99.90;;;;;;5094630;27;20370;-79
2023/01/16 09:43:39;;;;;;;1.15;0.50;;;5.20;99.90;;;;;;5048024;28;20062;-78
2023/01/16 09:46:25;;;;;;;1.08;0.50;;;5.20;99.90;;;;;;5051786;28;20044;-77
2023/01/16 09:49:06;;;;;;;3.03;0.80;;;5.20;99.90;;;;;;5050910;28;20115;-78
2023/01/16 09:51:36;;;;;;;0.95;0.70;;;5.20;99.90;;;;;;5078349;28;20036;-77
2023/01/16 09:59:54;;;;;;;1.67;0.77;;;5.20;99.90;;;;;;5064220;28;20493;-77
2023/01/16 10:02:40;;;;;;;0.65;0.38;;;5.20;99.90;;;;;;5068126;28;20069;-78
2023/01/16 10:05:06;;;;;;;1.40;0.45;;;5.20;99.90;;;;;;5051902;28;20110;-77
2023/01/16 10:07:59;;;;;;;0.57;0.40;;;5.20;99.90;;;;;;5063461;28;20036;-77
2023/01/16 10:10:52;;;;;;;2.97;0.80;;;5.20;99.90;;;;;;5045432;28;20060;-78
2023/01/16 10:13:44;;;;;;;1.00;0.55;;;5.20;99.90;;;;;;5053573;28;20173;-78
2023/01/16 10:16:23;;;;;;;1.55;0.55;;;5.10;99.90;;;;;;5061903;28;20056;-77
2023/01/16 10:19:16;;;;;;;2.10;0.50;;;5.20;99.90;;;;;;5047802;28;20032;-83
2023/01/16 10:22:00;;;;;;;0.75;0.47;;;5.20;99.90;;;;;;5041814;28;20401;-82
2023/01/16 10:24:39;;;;;;;1.27;0.47;;;5.20;99.90;;;;;;5041999;28;20050;-80
2023/01/16 10:27:35;;;;;;;0.80;0.63;;;5.10;99.90;;;;;;5070088;28;20036;-80
2023/01/16 10:30:14;;;;;;;0.70;0.30;;;5.10;99.90;;;;;;5070673;28;20039;-81
2023/01/16 10:33:14;;;;;;;3.05;0.65;;;5.10;99.90;;;;;;5050363;28;20044;-78
2023/01/16 10:35:44;;;;;;;1.02;0.50;;;5.10;99.90;;;;;;5063786;28;20045;-79
2023/01/16 10:38:43;;;;;;;0.65;0.30;;;5.10;99.90;;;;;;5053749;28;20067;-79
2023/01/16 10:50:04;;;;;;;0.95;0.52;;;4.90;99.90;;;;;;5066764;28;20036;-79
2023/01/16 10:52:31;;;;;;;0.80;0.50;;;4.90;99.90;;;;;;5060838;28;20498;-79
2023/01/16 10:54:58;;;;;;;0.70;0.50;;;4.90;99.90;;;;;;5077649;28;20043;-79
2023/01/16 10:57:24;;;;;;;1.35;0.73;;;4.90;99.90;;;;;;5070973;28;20037;-79
2023/01/16 10:59:52;;;;;;;0.90;0.60;;;4.90;99.90;;;;;;5048863;28;20389;-79
2023/01/16 11:02:39;;;;;;;0.55;0.30;;;4.80;99.90;;;;;;5079185;28;20040;-79
2023/01/16 11:05:24;;;;;;;1.38;0.50;;;4.80;99.90;;;;;;5068246;28;20040;-80
2023/01/16 11:07:54;;;;;;;0.75;0.50;;;4.80;99.90;;;;;;5104052;28;21662;-80
2023/01/16 11:10:21;;;;;;;0.98;0.30;;;4.80;99.90;;;;;;5057247;28;20512;-80
2023/01/16 11:18:35;;;;;;;1.88;0.50;;;4.80;99.90;;;;;;5069315;28;20417;-80
2023/01/16 11:21:22;;;;;;;0.70;0.50;;;4.90;99.90;;;;;;5069788;28;20105;-80
2023/01/16 11:23:48;;;;;;;1.42;0.60;;;4.90;99.90;;;;;;5070381;28;20044;-80
2023/01/16 11:26:15;;;;;;;2.03;0.70;;;4.80;99.90;;;;;;5052343;28;20494;-80
2023/01/16 11:28:47;;;;;;;0.88;0.40;;;4.90;99.90;;;;;;5068444;28;20075;-80
2023/01/16 11:31:25;;;;;;;0.88;0.50;;;4.90;99.90;;;;;;5069199;28;20119;-79
2023/01/16 11:33:57;;;;;;;0.85;0.50;;;4.90;99.90;;;;;;5079917;28;20051;-80
2023/01/16 11:36:25;;;;;;;1.13;0.50;;;4.90;99.90;;;;;;5049650;28;20478;-79
2023/01/16 11:38:52;;;;;;;4.25;0.55;;;4.90;99.90;;;;;;5061216;28;20079;-79
2023/01/16 11:41:27;;;;;;;2.45;0.93;;;4.90;99.90;;;;;;5064801;28;20086;-79
2023/01/16 11:46:58;;;;;;;0.95;0.40;;;4.90;99.90;;;;;;5069396;28;19916;-79
2023/01/16 11:49:31;;;;;;;0.68;0.40;;;4.90;99.90;;;;;;5052460;28;20043;-79
2023/01/16 11:52:02;;;;;;;0.40;0.32;;;4.90;99.90;;;;;;5067038;28;20135;-80
2023/01/16 11:54:34;;;;;;;0.47;0.28;;;5.00;99.90;;;;;;5053056;28;20329;-78
2023/01/16 11:57:04;;;;;;;0.70;0.50;;;4.90;99.90;;;;;;5063336;28;20064;-79
2023/01/16 12:00:14;;;;;;;1.02;0.60;;;5.00;99.90;;;;;;5074761;28;20040;-79
2023/01/16 12:02:58;;;;;;;0.85;0.50;;;4.90;99.90;;;;;;5060004;28;20044;-79
2023/01/16 12:05:56;;;;;;;1.45;0.73;;;5.00;99.90;;;;;;5074674;28;20040;-78
2023/01/16 12:08:49;;;;;;;1.35;0.40;;;5.00;99.90;;;;;;5072330;28;20032;-79
2023/01/16 12:11:38;;;;;;;0.73;0.43;;;5.00;99.90;;;;;;5063804;28;20058;-79
2023/01/16 12:14:42;;;;;;;1.77;0.73;;;5.00;99.90;;;;;;5079046;28;20052;-79
2023/01/16 12:17:17;;;;;;;0.35;0.22;;;5.00;99.90;;;;;;5044410;28;20166;-79
2023/01/16 12:19:58;;;;;;;;;;;5.00;99.90;;;;;;5053382;28;20048;-77
2023/01/16 12:22:55;;;;;;;1.88;0.60;;;5.10;99.90;;;;;;5110123;27;19915;-79
2023/01/16 12:25:42;;;;;;;0.57;0.47;;;5.10;99.90;;;;;;5074253;28;20083;-78
2023/01/16 12:28:32;;;;;;;1.80;0.65;;;5.10;99.90;;;;;;5067286;28;20036;-78
2023/01/16 12:31:31;;;;;;;1.83;0.50;;;5.10;99.90;;;;;;5078389;28;20048;-79
2023/01/16 12:34:09;;;;;;;1.25;0.50;;;5.20;99.90;;;;;;5064534;28;20047;-79
2023/01/16 12:36:37;;;;;;;0.90;0.60;;;5.10;99.90;;;;;;5075898;28;20048;-78
2023/01/16 12:39:24;;;;;;;1.00;0.50;;;5.20;99.90;;;;;;5075648;28;20044;-78
2023/01/16 12:45:21;;;;;;;1.67;0.32;;;5.20;99.90;;;;;;5079487;28;20071;-78
2023/01/16 12:48:01;;;;;;;0.85;0.50;;;5.20;99.90;;;;;;5093067;28;20093;-79
2023/01/16 12:50:57;;;;;;;0.60;0.40;;;5.30;99.90;;;;;;5074449;28;20035;-78
2023/01/16 12:53:35;;;;;;;1.00;0.55;;;5.30;99.90;;;;;;5078561;28;20123;-79
2023/01/16 12:56:27;;;;;;;0.82;0.50;;;5.20;99.90;;;;;;5075343;28;20489;-79
2023/01/16 12:59:07;;;;;;;2.13;0.60;;;5.30;99.90;;;;;;5072365;28;20067;-79
2023/01/16 13:01:41;;;;;;;1.13;0.60;;;5.20;99.90;;;;;;5077466;28;20041;-78
2023/01/16 13:04:12;;;;;;;1.38;0.73;;;5.30;99.90;;;;;;5067939;28;20041;-79
2023/01/16 13:06:45;;;;;;;0.65;0.40;;;5.30;99.90;;;;;;5065255;28;20093;-79
2023/01/16 13:09:37;;;;;;;0.57;0.47;;;5.20;99.90;;;;;;5060476;28;20063;-79
2023/01/16 13:15:02;;;;;;;0.98;0.45;;;5.30;99.90;;;;;;5074710;28;20660;-78
2023/01/16 13:18:10;;;;;;;1.25;0.65;;;5.20;99.90;;;;;;5074216;28;20032;-79
2023/01/16 13:20:36;;;;;;;0.73;0.32;;;5.30;99.90;;;;;;5057168;28;20048;-78
2023/01/16 13:23:08;;;;;;;0.73;0.60;;;5.30;99.90;;;;;;5074897;28;20263;-79
2023/01/16 13:25:49;;;;;;;0.90;0.57;;;5.30;99.90;;;;;;5060537;28;20036;-78
2023/01/16 13:28:34;;;;;;;1.10;0.50;;;5.40;99.90;;;;;;5059532;28;20063;-79
2023/01/16 13:31:04;;;;;;;1.15;0.50;;;5.30;99.90;;;;;;5057244;28;20036;-79
2023/01/16 13:33:34;;;;;;;1.17;0.60;;;5.40;99.90;;;;;;5079757;28;20425;-79
2023/01/16 13:36:18;;;;;;;0.85;0.40;;;5.40;99.90;;;;;;5067559;28;20081;-79
2023/01/16 13:39:22;;;;;;;0.73;0.40;;;5.40;99.90;;;;;;5073768;28;20072;-79
2023/01/16 13:41:52;;;;;;;0.93;0.57;;;5.40;99.90;;;;;;5070096;28;20167;-80
2023/01/16 13:47:18;;;;;;;0.68;0.32;;;5.50;99.90;;;;;;5074484;28;20036;-80
2023/01/16 13:49:51;;;;;;;0.50;0.40;;;5.50;99.90;;;;;;5055673;28;20044;-80
2023/01/16 13:52:21;;;;;;;0.85;0.40;;;5.50;99.90;;;;;;5059817;28;20040;-79
2023/01/16 13:54:49;;;;;;;0.75;0.63;;;5.50;99.90;;;;;;5068086;28;20031;-79
2023/01/16 13:57:21;;;;;;;0.82;0.55;;;5.50;99.90;;;;;;5068666;28;20032;-79
2023/01/16 14:00:05;;;;;;;0.80;0.50;;;5.50;99.90;;;;;;5061644;28;20386;-79
2023/01/16 14:02:36;;;;;;;0.70;0.50;;;5.50;99.90;;;;;;5071724;28;20047;-80
2023/01/16 14:05:11;;;;;;;0.93;0.45;;;5.50;99.90;;;;;;5075661;28;20045;-79
2023/01/16 14:10:44;;;;;;;0.70;0.38;;;5.60;99.90;;;;;;5070256;28;20084;-79
2023/01/16 14:13:20;;;;;;;0.50;0.40;;;5.60;99.90;;;;;;5078672;28;21131;-80
2023/01/16 14:19:01;;;;;;;1.75;0.55;;;5.60;99.90;;;;;;5072015;28;20049;-80
2023/01/16 14:24:00;;;;;;;0.85;0.47;;;5.60;99.90;;;;;;5058915;28;20054;-79
2023/01/16 14:24:48;;;;;;;1.15;0.47;;;5.60;99.90;;;;;;5068031;28;20044;-80
2023/01/16 14:27:21;;;;;;;1.65;0.55;;;5.60;99.90;;;;;;5067230;28;20315;-80
2023/01/16 14:30:04;;;;;;;0.65;0.30;;;5.60;99.90;;;;;;5065788;28;20036;-79